sensor_id;sensor_type;location;lat;lon;timestamp;temperature;humidity
67054;SHT31;53960;51.826;5.850;2022-08-19T00:00:05;18.55;88.89
67054;SHT31;53960;51.826;5.850;2022-08-19T00:02:32;18.52;88.95
67054;SHT31;53960;51.826;5.850;2022-08-19T00:04:57;18.46;89.01
67054;SHT31;53960;51.826;5.850;2022-08-19T00:07:23;18.46;88.89
67054;SHT31;53960;51.826;5.850;2022-08-19T00:09:48;18.43;88.71
67054;SHT31;53960;51.826;5.850;2022-08-19T00:12:13;18.42;88.63
67054;SHT31;53960;51.826;5.850;2022-08-19T00:14:40;18.43;88.79
67054;SHT31;53960;51.826;5.850;2022-08-19T00:17:07;18.42;88.83
67054;SHT31;53960;51.826;5.850;2022-08-19T00:19:34;18.39;88.92
67054;SHT31;53960;51.826;5.850;2022-08-19T00:22:00;18.38;89.11
67054;SHT31;53960;51.826;5.850;2022-08-19T00:24:25;18.32;89.22
67054;SHT31;53960;51.826;5.850;2022-08-19T00:26:51;18.35;89.01
67054;SHT31;53960;51.826;5.850;2022-08-19T00:29:19;18.31;89.23
67054;SHT31;53960;51.826;5.850;2022-08-19T00:31:45;18.31;88.97
67054;SHT31;53960;51.826;5.850;2022-08-19T00:34:12;18.31;88.93
67054;SHT31;53960;51.826;5.850;2022-08-19T00:36:37;18.24;89.45
67054;SHT31;53960;51.826;5.850;2022-08-19T00:39:04;18.25;89.41
67054;SHT31;53960;51.826;5.850;2022-08-19T00:41:29;18.21;89.47
67054;SHT31;53960;51.826;5.850;2022-08-19T00:44:09;18.19;89.29
67054;SHT31;53960;51.826;5.850;2022-08-19T00:46:38;18.18;89.10
67054;SHT31;53960;51.826;5.850;2022-08-19T00:49:10;18.16;89.08
67054;SHT31;53960;51.826;5.850;2022-08-19T00:51:40;18.16;89.07
67054;SHT31;53960;51.826;5.850;2022-08-19T00:54:06;18.11;89.14
67054;SHT31;53960;51.826;5.850;2022-08-19T00:56:32;18.12;89.01
67054;SHT31;53960;51.826;5.850;2022-08-19T00:58:58;18.06;89.17
67054;SHT31;53960;51.826;5.850;2022-08-19T01:01:25;18.06;89.41
67054;SHT31;53960;51.826;5.850;2022-08-19T01:03:50;18.09;89.43
67054;SHT31;53960;51.826;5.850;2022-08-19T01:06:15;18.02;89.55
67054;SHT31;53960;51.826;5.850;2022-08-19T01:08:41;18.00;89.62
67054;SHT31;53960;51.826;5.850;2022-08-19T01:11:07;17.97;89.80
67054;SHT31;53960;51.826;5.850;2022-08-19T01:13:33;17.93;89.85
67054;SHT31;53960;51.826;5.850;2022-08-19T01:16:05;17.93;89.76
67054;SHT31;53960;51.826;5.850;2022-08-19T01:18:32;17.91;89.78
67054;SHT31;53960;51.826;5.850;2022-08-19T01:21:03;17.90;89.66
67054;SHT31;53960;51.826;5.850;2022-08-19T01:23:31;17.85;89.60
67054;SHT31;53960;51.826;5.850;2022-08-19T01:26:17;17.84;89.52
67054;SHT31;53960;51.826;5.850;2022-08-19T01:28:44;17.84;89.72
67054;SHT31;53960;51.826;5.850;2022-08-19T01:31:17;17.80;89.85
67054;SHT31;53960;51.826;5.850;2022-08-19T01:33:44;17.80;89.73
67054;SHT31;53960;51.826;5.850;2022-08-19T01:36:12;17.78;89.36
67054;SHT31;53960;51.826;5.850;2022-08-19T01:38:40;17.75;89.61
67054;SHT31;53960;51.826;5.850;2022-08-19T01:41:08;17.74;89.35
67054;SHT31;53960;51.826;5.850;2022-08-19T01:43:34;17.71;89.39
67054;SHT31;53960;51.826;5.850;2022-08-19T01:45:59;17.71;89.30
67054;SHT31;53960;51.826;5.850;2022-08-19T01:48:26;17.75;89.53
67054;SHT31;53960;51.826;5.850;2022-08-19T01:50:54;17.78;89.82
67054;SHT31;53960;51.826;5.850;2022-08-19T01:53:20;17.78;89.87
67054;SHT31;53960;51.826;5.850;2022-08-19T01:55:45;17.78;89.57
67054;SHT31;53960;51.826;5.850;2022-08-19T01:58:15;17.78;90.15
67054;SHT31;53960;51.826;5.850;2022-08-19T02:00:42;17.78;90.00
67054;SHT31;53960;51.826;5.850;2022-08-19T02:03:08;17.74;90.02
67054;SHT31;53960;51.826;5.850;2022-08-19T02:05:34;17.75;90.20
67054;SHT31;53960;51.826;5.850;2022-08-19T02:07:59;17.75;90.30
67054;SHT31;53960;51.826;5.850;2022-08-19T02:10:24;17.74;90.03
67054;SHT31;53960;51.826;5.850;2022-08-19T02:12:50;17.73;90.14
67054;SHT31;53960;51.826;5.850;2022-08-19T02:15:17;17.78;90.32
67054;SHT31;53960;51.826;5.850;2022-08-19T02:17:44;17.80;90.13
67054;SHT31;53960;51.826;5.850;2022-08-19T02:20:10;17.80;89.73
67054;SHT31;53960;51.826;5.850;2022-08-19T02:22:38;17.81;89.69
67054;SHT31;53960;51.826;5.850;2022-08-19T02:25:06;17.83;90.02
67054;SHT31;53960;51.826;5.850;2022-08-19T02:27:32;17.85;90.10
67054;SHT31;53960;51.826;5.850;2022-08-19T02:29:59;17.90;89.99
67054;SHT31;53960;51.826;5.850;2022-08-19T02:32:24;17.91;89.77
67054;SHT31;53960;51.826;5.850;2022-08-19T02:34:50;17.90;89.68
67054;SHT31;53960;51.826;5.850;2022-08-19T02:37:16;17.90;89.69
67054;SHT31;53960;51.826;5.850;2022-08-19T02:40:00;17.84;89.78
67054;SHT31;53960;51.826;5.850;2022-08-19T02:42:26;17.80;89.64
67054;SHT31;53960;51.826;5.850;2022-08-19T02:44:51;17.77;89.67
67054;SHT31;53960;51.826;5.850;2022-08-19T02:47:18;17.74;89.67
67054;SHT31;53960;51.826;5.850;2022-08-19T02:49:44;17.73;89.49
67054;SHT31;53960;51.826;5.850;2022-08-19T02:52:10;17.73;89.49
67054;SHT31;53960;51.826;5.850;2022-08-19T02:54:36;17.69;89.50
67054;SHT31;53960;51.826;5.850;2022-08-19T02:57:02;17.73;89.78
67054;SHT31;53960;51.826;5.850;2022-08-19T02:59:30;17.71;89.77
67054;SHT31;53960;51.826;5.850;2022-08-19T03:01:55;17.73;89.89
67054;SHT31;53960;51.826;5.850;2022-08-19T03:04:21;17.74;89.77
67054;SHT31;53960;51.826;5.850;2022-08-19T03:06:48;17.74;89.83
67054;SHT31;53960;51.826;5.850;2022-08-19T03:09:15;17.75;89.91
67054;SHT31;53960;51.826;5.850;2022-08-19T03:11:41;17.71;89.61
67054;SHT31;53960;51.826;5.850;2022-08-19T03:14:08;17.70;89.51
67054;SHT31;53960;51.826;5.850;2022-08-19T03:16:40;17.64;89.14
67054;SHT31;53960;51.826;5.850;2022-08-19T03:19:06;17.63;89.43
67054;SHT31;53960;51.826;5.850;2022-08-19T03:21:33;17.62;89.48
67054;SHT31;53960;51.826;5.850;2022-08-19T03:24:05;17.54;89.54
67054;SHT31;53960;51.826;5.850;2022-08-19T03:26:32;17.50;89.48
67054;SHT31;53960;51.826;5.850;2022-08-19T03:29:01;17.51;89.68
67054;SHT31;53960;51.826;5.850;2022-08-19T03:31:27;17.47;89.91
67054;SHT31;53960;51.826;5.850;2022-08-19T03:33:52;17.47;90.01
67054;SHT31;53960;51.826;5.850;2022-08-19T03:36:21;17.47;89.94
67054;SHT31;53960;51.826;5.850;2022-08-19T03:38:54;17.43;90.40
67054;SHT31;53960;51.826;5.850;2022-08-19T03:41:41;17.39;90.38
67054;SHT31;53960;51.826;5.850;2022-08-19T03:44:07;17.43;90.44
67054;SHT31;53960;51.826;5.850;2022-08-19T03:46:34;17.42;90.66
67054;SHT31;53960;51.826;5.850;2022-08-19T03:49:02;17.37;90.33
67054;SHT31;53960;51.826;5.850;2022-08-19T03:51:36;17.37;90.62
67054;SHT31;53960;51.826;5.850;2022-08-19T03:54:05;17.34;90.59
67054;SHT31;53960;51.826;5.850;2022-08-19T03:56:34;17.32;90.57
67054;SHT31;53960;51.826;5.850;2022-08-19T03:59:00;17.32;90.52
67054;SHT31;53960;51.826;5.850;2022-08-19T04:01:28;17.33;90.48
67054;SHT31;53960;51.826;5.850;2022-08-19T04:03:56;17.33;90.53
67054;SHT31;53960;51.826;5.850;2022-08-19T04:06:23;17.29;90.60
67054;SHT31;53960;51.826;5.850;2022-08-19T04:08:51;17.23;90.55
67054;SHT31;53960;51.826;5.850;2022-08-19T04:11:18;17.20;90.44
67054;SHT31;53960;51.826;5.850;2022-08-19T04:13:46;17.22;90.70
67054;SHT31;53960;51.826;5.850;2022-08-19T04:16:12;17.19;90.83
67054;SHT31;53960;51.826;5.850;2022-08-19T04:18:38;17.15;90.52
67054;SHT31;53960;51.826;5.850;2022-08-19T04:21:05;17.18;90.31
67054;SHT31;53960;51.826;5.850;2022-08-19T04:23:31;17.13;90.27
67054;SHT31;53960;51.826;5.850;2022-08-19T04:25:57;17.11;90.26
67054;SHT31;53960;51.826;5.850;2022-08-19T04:28:23;17.08;90.27
67054;SHT31;53960;51.826;5.850;2022-08-19T04:30:52;17.08;90.67
67054;SHT31;53960;51.826;5.850;2022-08-19T04:33:20;17.08;90.81
67054;SHT31;53960;51.826;5.850;2022-08-19T04:35:49;17.05;90.12
67054;SHT31;53960;51.826;5.850;2022-08-19T04:38:17;17.06;90.02
67054;SHT31;53960;51.826;5.850;2022-08-19T04:40:46;17.03;90.13
67054;SHT31;53960;51.826;5.850;2022-08-19T04:43:30;17.06;90.18
67054;SHT31;53960;51.826;5.850;2022-08-19T04:45:56;17.02;90.37
67054;SHT31;53960;51.826;5.850;2022-08-19T04:48:21;17.01;90.31
67054;SHT31;53960;51.826;5.850;2022-08-19T04:50:54;17.01;90.77
67054;SHT31;53960;51.826;5.850;2022-08-19T04:53:25;17.01;90.35
67054;SHT31;53960;51.826;5.850;2022-08-19T04:55:52;16.98;90.17
67054;SHT31;53960;51.826;5.850;2022-08-19T04:58:17;17.02;90.46
67054;SHT31;53960;51.826;5.850;2022-08-19T05:00:43;17.02;90.57
67054;SHT31;53960;51.826;5.850;2022-08-19T05:03:09;16.98;90.19
67054;SHT31;53960;51.826;5.850;2022-08-19T05:05:39;16.98;89.96
67054;SHT31;53960;51.826;5.850;2022-08-19T05:08:04;16.99;90.15
67054;SHT31;53960;51.826;5.850;2022-08-19T05:10:31;16.99;90.19
67054;SHT31;53960;51.826;5.850;2022-08-19T05:12:56;17.02;90.41
67054;SHT31;53960;51.826;5.850;2022-08-19T05:15:22;17.05;90.44
67054;SHT31;53960;51.826;5.850;2022-08-19T05:17:47;17.06;90.66
67054;SHT31;53960;51.826;5.850;2022-08-19T05:20:33;17.08;90.59
67054;SHT31;53960;51.826;5.850;2022-08-19T05:23:16;17.15;90.90
67054;SHT31;53960;51.826;5.850;2022-08-19T05:25:42;17.26;91.85
67054;SHT31;53960;51.826;5.850;2022-08-19T05:28:07;17.27;92.33
67054;SHT31;53960;51.826;5.850;2022-08-19T05:30:33;17.29;91.94
67054;SHT31;53960;51.826;5.850;2022-08-19T05:32:59;17.36;91.95
67054;SHT31;53960;51.826;5.850;2022-08-19T05:35:24;17.37;91.69
67054;SHT31;53960;51.826;5.850;2022-08-19T05:37:49;17.47;91.32
67054;SHT31;53960;51.826;5.850;2022-08-19T05:40:15;17.47;91.41
67054;SHT31;53960;51.826;5.850;2022-08-19T05:42:40;17.44;91.72
67054;SHT31;53960;51.826;5.850;2022-08-19T05:45:06;17.47;91.87
67054;SHT31;53960;51.826;5.850;2022-08-19T05:47:32;17.54;91.17
67054;SHT31;53960;51.826;5.850;2022-08-19T05:49:57;17.57;91.33
67054;SHT31;53960;51.826;5.850;2022-08-19T05:52:23;17.60;91.07
67054;SHT31;53960;51.826;5.850;2022-08-19T05:54:48;17.64;91.24
67054;SHT31;53960;51.826;5.850;2022-08-19T05:57:16;17.69;91.06
67054;SHT31;53960;51.826;5.850;2022-08-19T05:59:41;17.71;90.81
67054;SHT31;53960;51.826;5.850;2022-08-19T06:02:07;17.69;91.08
67054;SHT31;53960;51.826;5.850;2022-08-19T06:04:32;17.75;90.96
67054;SHT31;53960;51.826;5.850;2022-08-19T06:06:58;17.84;90.89
67054;SHT31;53960;51.826;5.850;2022-08-19T06:09:24;17.88;91.11
67054;SHT31;53960;51.826;5.850;2022-08-19T06:11:55;18.01;91.67
67054;SHT31;53960;51.826;5.850;2022-08-19T06:14:27;18.12;91.69
67054;SHT31;53960;51.826;5.850;2022-08-19T06:16:53;18.21;91.70
67054;SHT31;53960;51.826;5.850;2022-08-19T06:19:20;18.31;91.66
67054;SHT31;53960;51.826;5.850;2022-08-19T06:21:48;18.45;91.58
67054;SHT31;53960;51.826;5.850;2022-08-19T06:24:20;18.59;91.41
67054;SHT31;53960;51.826;5.850;2022-08-19T06:26:48;18.70;91.06
67054;SHT31;53960;51.826;5.850;2022-08-19T06:29:16;18.72;90.67
67054;SHT31;53960;51.826;5.850;2022-08-19T06:31:47;18.74;90.25
67054;SHT31;53960;51.826;5.850;2022-08-19T06:34:15;18.74;90.17
67054;SHT31;53960;51.826;5.850;2022-08-19T06:36:44;18.82;90.09
67054;SHT31;53960;51.826;5.850;2022-08-19T06:39:19;18.86;89.67
67054;SHT31;53960;51.826;5.850;2022-08-19T06:41:48;18.86;89.52
67054;SHT31;53960;51.826;5.850;2022-08-19T06:44:14;18.87;89.38
67054;SHT31;53960;51.826;5.850;2022-08-19T06:46:40;18.87;89.11
67054;SHT31;53960;51.826;5.850;2022-08-19T06:49:07;18.84;89.16
67054;SHT31;53960;51.826;5.850;2022-08-19T06:51:34;18.87;89.09
67054;SHT31;53960;51.826;5.850;2022-08-19T06:54:00;18.89;88.86
67054;SHT31;53960;51.826;5.850;2022-08-19T06:56:29;18.90;89.05
67054;SHT31;53960;51.826;5.850;2022-08-19T06:59:09;18.90;88.55
67054;SHT31;53960;51.826;5.850;2022-08-19T07:01:46;18.93;88.33
67054;SHT31;53960;51.826;5.850;2022-08-19T07:04:14;19.01;88.14
67054;SHT31;53960;51.826;5.850;2022-08-19T07:06:41;19.03;87.95
67054;SHT31;53960;51.826;5.850;2022-08-19T07:09:07;19.07;87.68
67054;SHT31;53960;51.826;5.850;2022-08-19T07:11:33;19.17;87.54
67054;SHT31;53960;51.826;5.850;2022-08-19T07:14:00;19.25;87.00
67054;SHT31;53960;51.826;5.850;2022-08-19T07:16:25;19.28;87.20
67054;SHT31;53960;51.826;5.850;2022-08-19T07:18:51;19.35;86.86
67054;SHT31;53960;51.826;5.850;2022-08-19T07:21:27;19.45;86.18
67054;SHT31;53960;51.826;5.850;2022-08-19T07:23:56;19.51;85.84
67054;SHT31;53960;51.826;5.850;2022-08-19T07:26:26;19.58;86.06
67054;SHT31;53960;51.826;5.850;2022-08-19T07:28:52;19.62;85.93
67054;SHT31;53960;51.826;5.850;2022-08-19T07:31:20;19.63;85.68
67054;SHT31;53960;51.826;5.850;2022-08-19T07:33:48;19.68;86.23
67054;SHT31;53960;51.826;5.850;2022-08-19T07:36:16;19.75;85.56
67054;SHT31;53960;51.826;5.850;2022-08-19T07:38:44;19.78;85.42
67054;SHT31;53960;51.826;5.850;2022-08-19T07:41:15;19.83;85.42
67054;SHT31;53960;51.826;5.850;2022-08-19T07:43:41;19.93;85.22
67054;SHT31;53960;51.826;5.850;2022-08-19T07:46:08;20.03;84.55
67054;SHT31;53960;51.826;5.850;2022-08-19T07:48:34;20.16;84.19
67054;SHT31;53960;51.826;5.850;2022-08-19T07:51:02;20.29;84.82
67054;SHT31;53960;51.826;5.850;2022-08-19T07:53:29;20.36;83.62
67054;SHT31;53960;51.826;5.850;2022-08-19T07:55:55;20.37;82.51
67054;SHT31;53960;51.826;5.850;2022-08-19T07:58:23;20.54;82.21
67054;SHT31;53960;51.826;5.850;2022-08-19T08:00:50;20.47;81.24
67054;SHT31;53960;51.826;5.850;2022-08-19T08:03:19;20.33;81.36
67054;SHT31;53960;51.826;5.850;2022-08-19T08:05:45;20.30;81.92
67054;SHT31;53960;51.826;5.850;2022-08-19T08:08:29;20.31;81.62
67054;SHT31;53960;51.826;5.850;2022-08-19T08:11:21;20.36;81.37
67054;SHT31;53960;51.826;5.850;2022-08-19T08:13:47;20.44;81.10
67054;SHT31;53960;51.826;5.850;2022-08-19T08:16:13;20.44;81.00
67054;SHT31;53960;51.826;5.850;2022-08-19T08:18:38;20.52;81.40
67054;SHT31;53960;51.826;5.850;2022-08-19T08:21:06;20.58;80.65
67054;SHT31;53960;51.826;5.850;2022-08-19T08:23:32;20.61;81.33
67054;SHT31;53960;51.826;5.850;2022-08-19T08:25:57;20.63;81.33
67054;SHT31;53960;51.826;5.850;2022-08-19T08:28:24;20.61;80.45
67054;SHT31;53960;51.826;5.850;2022-08-19T08:30:50;20.65;80.93
67054;SHT31;53960;51.826;5.850;2022-08-19T08:33:20;20.68;80.72
67054;SHT31;53960;51.826;5.850;2022-08-19T08:35:46;20.77;80.59
67054;SHT31;53960;51.826;5.850;2022-08-19T08:38:12;20.92;81.45
67054;SHT31;53960;51.826;5.850;2022-08-19T08:40:50;20.98;80.54
67054;SHT31;53960;51.826;5.850;2022-08-19T08:43:29;21.02;78.96
67054;SHT31;53960;51.826;5.850;2022-08-19T08:46:03;21.03;78.27
67054;SHT31;53960;51.826;5.850;2022-08-19T08:50:59;21.03;78.73
67054;SHT31;53960;51.826;5.850;2022-08-19T08:53:26;21.13;77.97
67054;SHT31;53960;51.826;5.850;2022-08-19T08:55:52;21.26;78.30
67054;SHT31;53960;51.826;5.850;2022-08-19T08:58:32;21.39;78.30
67054;SHT31;53960;51.826;5.850;2022-08-19T09:01:04;21.49;77.83
67054;SHT31;53960;51.826;5.850;2022-08-19T09:03:30;21.56;76.04
67054;SHT31;53960;51.826;5.850;2022-08-19T09:06:02;21.64;76.11
67054;SHT31;53960;51.826;5.850;2022-08-19T09:09:02;21.74;76.05
67054;SHT31;53960;51.826;5.850;2022-08-19T09:14:10;21.77;75.19
67054;SHT31;53960;51.826;5.850;2022-08-19T09:16:39;21.83;74.65
67054;SHT31;53960;51.826;5.850;2022-08-19T09:19:07;21.93;74.40
67054;SHT31;53960;51.826;5.850;2022-08-19T09:21:33;22.04;74.64
67054;SHT31;53960;51.826;5.850;2022-08-19T09:24:00;22.18;73.77
67054;SHT31;53960;51.826;5.850;2022-08-19T09:26:26;22.32;73.24
67054;SHT31;53960;51.826;5.850;2022-08-19T09:28:52;22.44;73.37
67054;SHT31;53960;51.826;5.850;2022-08-19T09:31:24;22.36;73.05
67054;SHT31;53960;51.826;5.850;2022-08-19T09:33:50;22.36;72.68
67054;SHT31;53960;51.826;5.850;2022-08-19T09:36:17;22.52;71.89
67054;SHT31;53960;51.826;5.850;2022-08-19T09:38:44;22.57;71.87
67054;SHT31;53960;51.826;5.850;2022-08-19T09:41:15;22.51;73.09
67054;SHT31;53960;51.826;5.850;2022-08-19T09:43:44;22.42;73.85
67054;SHT31;53960;51.826;5.850;2022-08-19T09:46:10;22.41;76.03
67054;SHT31;53960;51.826;5.850;2022-08-19T09:48:37;22.59;75.86
67054;SHT31;53960;51.826;5.850;2022-08-19T09:51:10;22.44;75.83
67054;SHT31;53960;51.826;5.850;2022-08-19T09:53:37;22.45;76.34
67054;SHT31;53960;51.826;5.850;2022-08-19T09:56:03;22.35;76.11
67054;SHT31;53960;51.826;5.850;2022-08-19T09:58:29;22.21;76.02
67054;SHT31;53960;51.826;5.850;2022-08-19T10:00:56;22.29;75.97
67054;SHT31;53960;51.826;5.850;2022-08-19T10:03:22;22.26;75.68
67054;SHT31;53960;51.826;5.850;2022-08-19T10:05:48;22.39;74.49
67054;SHT31;53960;51.826;5.850;2022-08-19T10:08:23;22.48;74.45
67054;SHT31;53960;51.826;5.850;2022-08-19T10:10:51;22.55;73.23
67054;SHT31;53960;51.826;5.850;2022-08-19T10:13:18;22.35;73.66
67054;SHT31;53960;51.826;5.850;2022-08-19T10:15:49;22.51;73.00
67054;SHT31;53960;51.826;5.850;2022-08-19T10:18:16;22.39;73.14
67054;SHT31;53960;51.826;5.850;2022-08-19T10:20:49;22.19;73.41
67054;SHT31;53960;51.826;5.850;2022-08-19T10:23:16;22.18;72.57
67054;SHT31;53960;51.826;5.850;2022-08-19T10:25:42;22.14;72.41
67054;SHT31;53960;51.826;5.850;2022-08-19T10:28:08;22.11;73.31
67054;SHT31;53960;51.826;5.850;2022-08-19T10:30:35;22.11;72.92
67054;SHT31;53960;51.826;5.850;2022-08-19T10:33:01;22.26;73.03
67054;SHT31;53960;51.826;5.850;2022-08-19T10:35:26;22.60;71.56
67054;SHT31;53960;51.826;5.850;2022-08-19T10:37:53;22.87;71.12
67054;SHT31;53960;51.826;5.850;2022-08-19T10:40:18;22.86;70.97
67054;SHT31;53960;51.826;5.850;2022-08-19T10:42:44;22.94;70.60
67054;SHT31;53960;51.826;5.850;2022-08-19T10:45:10;23.21;69.57
67054;SHT31;53960;51.826;5.850;2022-08-19T10:47:35;23.11;69.50
67054;SHT31;53960;51.826;5.850;2022-08-19T10:50:01;23.17;70.05
67054;SHT31;53960;51.826;5.850;2022-08-19T10:52:48;23.28;69.85
67054;SHT31;53960;51.826;5.850;2022-08-19T10:55:13;23.23;68.80
67054;SHT31;53960;51.826;5.850;2022-08-19T10:57:57;22.94;70.22
67054;SHT31;53960;51.826;5.850;2022-08-19T11:00:23;22.90;69.90
67054;SHT31;53960;51.826;5.850;2022-08-19T11:02:50;22.84;69.52
67054;SHT31;53960;51.826;5.850;2022-08-19T11:05:15;23.07;69.36
67054;SHT31;53960;51.826;5.850;2022-08-19T11:07:42;23.03;69.36
67054;SHT31;53960;51.826;5.850;2022-08-19T11:10:11;22.96;69.85
67054;SHT31;53960;51.826;5.850;2022-08-19T11:12:38;22.80;69.81
67054;SHT31;53960;51.826;5.850;2022-08-19T11:15:07;23.04;69.57
67054;SHT31;53960;51.826;5.850;2022-08-19T11:17:37;23.41;69.18
67054;SHT31;53960;51.826;5.850;2022-08-19T11:20:06;23.55;68.68
67054;SHT31;53960;51.826;5.850;2022-08-19T11:22:32;23.64;67.82
67054;SHT31;53960;51.826;5.850;2022-08-19T11:24:57;23.47;68.34
67054;SHT31;53960;51.826;5.850;2022-08-19T11:27:23;23.62;66.41
67054;SHT31;53960;51.826;5.850;2022-08-19T11:29:48;23.76;67.58
67054;SHT31;53960;51.826;5.850;2022-08-19T11:32:13;23.73;68.52
67054;SHT31;53960;51.826;5.850;2022-08-19T11:34:39;23.66;67.53
67054;SHT31;53960;51.826;5.850;2022-08-19T11:37:05;23.52;68.10
67054;SHT31;53960;51.826;5.850;2022-08-19T11:39:33;23.57;68.52
67054;SHT31;53960;51.826;5.850;2022-08-19T11:42:00;23.35;68.63
67054;SHT31;53960;51.826;5.850;2022-08-19T11:44:26;23.33;69.21
67054;SHT31;53960;51.826;5.850;2022-08-19T11:46:51;23.69;69.34
67054;SHT31;53960;51.826;5.850;2022-08-19T11:49:19;23.65;68.63
67054;SHT31;53960;51.826;5.850;2022-08-19T11:51:45;23.83;68.03
67054;SHT31;53960;51.826;5.850;2022-08-19T11:54:13;23.82;68.02
67054;SHT31;53960;51.826;5.850;2022-08-19T11:56:39;23.78;68.67
67054;SHT31;53960;51.826;5.850;2022-08-19T11:59:05;23.98;68.94
67054;SHT31;53960;51.826;5.850;2022-08-19T12:01:31;23.89;67.69
67054;SHT31;53960;51.826;5.850;2022-08-19T12:03:57;24.22;68.19
67054;SHT31;53960;51.826;5.850;2022-08-19T12:06:26;24.46;67.25
67054;SHT31;53960;51.826;5.850;2022-08-19T12:08:53;24.17;67.67
67054;SHT31;53960;51.826;5.850;2022-08-19T12:11:19;24.14;67.68
67054;SHT31;53960;51.826;5.850;2022-08-19T12:13:44;24.17;67.19
67054;SHT31;53960;51.826;5.850;2022-08-19T12:16:13;24.08;67.88
67054;SHT31;53960;51.826;5.850;2022-08-19T12:18:40;24.16;68.04
67054;SHT31;53960;51.826;5.850;2022-08-19T12:21:11;24.34;68.18
67054;SHT31;53960;51.826;5.850;2022-08-19T12:23:39;24.51;66.97
67054;SHT31;53960;51.826;5.850;2022-08-19T12:26:04;24.61;66.32
67054;SHT31;53960;51.826;5.850;2022-08-19T12:28:30;24.70;65.92
67054;SHT31;53960;51.826;5.850;2022-08-19T12:30:56;24.71;65.99
67054;SHT31;53960;51.826;5.850;2022-08-19T12:33:22;24.87;66.07
67054;SHT31;53960;51.826;5.850;2022-08-19T12:35:51;24.78;66.12
67054;SHT31;53960;51.826;5.850;2022-08-19T12:38:16;24.80;66.01
67054;SHT31;53960;51.826;5.850;2022-08-19T12:40:45;24.88;65.18
67054;SHT31;53960;51.826;5.850;2022-08-19T12:43:11;24.72;65.12
67054;SHT31;53960;51.826;5.850;2022-08-19T12:45:37;24.84;64.88
67054;SHT31;53960;51.826;5.850;2022-08-19T12:48:03;24.91;65.22
67054;SHT31;53960;51.826;5.850;2022-08-19T12:50:29;25.01;64.72
67054;SHT31;53960;51.826;5.850;2022-08-19T12:52:56;25.09;64.92
67054;SHT31;53960;51.826;5.850;2022-08-19T12:55:21;25.22;64.32
67054;SHT31;53960;51.826;5.850;2022-08-19T12:57:47;25.09;64.12
67054;SHT31;53960;51.826;5.850;2022-08-19T13:00:16;25.18;64.52
67054;SHT31;53960;51.826;5.850;2022-08-19T13:02:46;25.23;63.97
67054;SHT31;53960;51.826;5.850;2022-08-19T13:05:16;25.39;63.85
67054;SHT31;53960;51.826;5.850;2022-08-19T13:07:44;25.12;63.63
67054;SHT31;53960;51.826;5.850;2022-08-19T13:10:12;25.05;63.91
67054;SHT31;53960;51.826;5.850;2022-08-19T13:12:38;25.01;64.10
67054;SHT31;53960;51.826;5.850;2022-08-19T13:15:04;24.71;65.00
67054;SHT31;53960;51.826;5.850;2022-08-19T13:17:29;24.85;65.39
67054;SHT31;53960;51.826;5.850;2022-08-19T13:19:54;25.16;64.48
67054;SHT31;53960;51.826;5.850;2022-08-19T13:22:20;25.33;63.30
67054;SHT31;53960;51.826;5.850;2022-08-19T13:24:45;25.54;64.08
67054;SHT31;53960;51.826;5.850;2022-08-19T13:27:11;25.51;63.52
67054;SHT31;53960;51.826;5.850;2022-08-19T13:29:36;25.39;63.96
67054;SHT31;53960;51.826;5.850;2022-08-19T13:32:20;25.35;63.32
67054;SHT31;53960;51.826;5.850;2022-08-19T13:35:04;25.51;62.48
67054;SHT31;53960;51.826;5.850;2022-08-19T13:37:30;25.38;62.73
67054;SHT31;53960;51.826;5.850;2022-08-19T13:42:38;25.74;62.61
67054;SHT31;53960;51.826;5.850;2022-08-19T13:45:03;25.81;62.52
67054;SHT31;53960;51.826;5.850;2022-08-19T13:47:31;25.83;62.30
67054;SHT31;53960;51.826;5.850;2022-08-19T13:49:56;25.71;62.14
67054;SHT31;53960;51.826;5.850;2022-08-19T13:52:22;25.63;62.87
67054;SHT31;53960;51.826;5.850;2022-08-19T13:54:47;25.91;62.24
67054;SHT31;53960;51.826;5.850;2022-08-19T13:57:13;26.05;62.02
67054;SHT31;53960;51.826;5.850;2022-08-19T13:59:39;25.87;62.33
67054;SHT31;53960;51.826;5.850;2022-08-19T14:02:04;25.45;63.17
67054;SHT31;53960;51.826;5.850;2022-08-19T14:04:30;25.38;63.64
67054;SHT31;53960;51.826;5.850;2022-08-19T14:06:55;25.26;64.30
67054;SHT31;53960;51.826;5.850;2022-08-19T14:09:21;25.12;65.04
67054;SHT31;53960;51.826;5.850;2022-08-19T14:11:46;25.12;64.77
67054;SHT31;53960;51.826;5.850;2022-08-19T14:14:11;25.15;65.25
67054;SHT31;53960;51.826;5.850;2022-08-19T14:16:37;25.05;65.25
67054;SHT31;53960;51.826;5.850;2022-08-19T14:19:03;25.05;65.48
67054;SHT31;53960;51.826;5.850;2022-08-19T14:21:28;25.46;64.71
67054;SHT31;53960;51.826;5.850;2022-08-19T14:23:53;25.50;64.38
67054;SHT31;53960;51.826;5.850;2022-08-19T14:26:20;25.47;64.66
67054;SHT31;53960;51.826;5.850;2022-08-19T14:28:46;25.15;65.45
67054;SHT31;53960;51.826;5.850;2022-08-19T14:31:12;24.92;66.60
67054;SHT31;53960;51.826;5.850;2022-08-19T14:33:38;24.98;66.55
67054;SHT31;53960;51.826;5.850;2022-08-19T14:36:05;25.02;66.62
67054;SHT31;53960;51.826;5.850;2022-08-19T14:38:30;25.29;65.57
67054;SHT31;53960;51.826;5.850;2022-08-19T14:41:07;25.33;66.06
67054;SHT31;53960;51.826;5.850;2022-08-19T14:43:33;25.38;65.70
67054;SHT31;53960;51.826;5.850;2022-08-19T14:45:58;25.39;65.89
67054;SHT31;53960;51.826;5.850;2022-08-19T14:48:23;25.42;65.44
67054;SHT31;53960;51.826;5.850;2022-08-19T14:50:48;25.32;65.50
67054;SHT31;53960;51.826;5.850;2022-08-19T14:53:15;25.29;66.07
67054;SHT31;53960;51.826;5.850;2022-08-19T14:55:42;25.18;66.09
67054;SHT31;53960;51.826;5.850;2022-08-19T14:58:08;25.05;66.81
67054;SHT31;53960;51.826;5.850;2022-08-19T15:00:33;25.04;67.90
67054;SHT31;53960;51.826;5.850;2022-08-19T15:02:59;25.01;68.15
67054;SHT31;53960;51.826;5.850;2022-08-19T15:05:24;24.90;67.87
67054;SHT31;53960;51.826;5.850;2022-08-19T15:07:49;24.87;68.26
67054;SHT31;53960;51.826;5.850;2022-08-19T15:10:15;24.71;67.48
67054;SHT31;53960;51.826;5.850;2022-08-19T15:12:41;24.63;67.42
67054;SHT31;53960;51.826;5.850;2022-08-19T15:15:09;24.56;67.90
67054;SHT31;53960;51.826;5.850;2022-08-19T15:17:38;24.44;68.43
67054;SHT31;53960;51.826;5.850;2022-08-19T15:20:06;24.39;68.28
67054;SHT31;53960;51.826;5.850;2022-08-19T15:22:32;24.39;68.50
67054;SHT31;53960;51.826;5.850;2022-08-19T15:24:57;24.46;68.34
67054;SHT31;53960;51.826;5.850;2022-08-19T15:27:23;24.40;68.44
67054;SHT31;53960;51.826;5.850;2022-08-19T15:29:48;24.39;68.50
67054;SHT31;53960;51.826;5.850;2022-08-19T15:32:13;24.41;68.86
67054;SHT31;53960;51.826;5.850;2022-08-19T15:34:38;24.56;68.71
67054;SHT31;53960;51.826;5.850;2022-08-19T15:37:04;24.46;69.34
67054;SHT31;53960;51.826;5.850;2022-08-19T15:39:30;24.37;69.89